Time;durP1;ratioP1;P1;durP2;ratioP2;P2;SDS_P1;SDS_P2;PMS_P1;PMS_P2;Temp;Humidity;BMP_temperature;BMP_pressure;BME280_temperature;BME280_humidity;BME280_pressure;Samples;Min_cycle;Max_cycle;Signal;HPM_P1;HPM_P2
2023/04/30 00:01:58;;;;;;;9.80;8.83;;;;;;;;;;5031831;28;20403;-58
2023/04/30 00:04:24;;;;;;;9.67;8.30;;;;;;;;;;5031894;28;20436;-58
2023/04/30 00:06:50;;;;;;;8.80;7.90;;;;;;;;;;5031448;28;20770;-59
2023/04/30 00:09:16;;;;;;;8.30;7.70;;;;;;;;;;5032076;28;20396;-59
2023/04/30 00:11:42;;;;;;;9.17;8.43;;;;;;;;;;5031699;28;20459;-57
2023/04/30 00:14:11;;;;;;;8.73;7.93;;;;;;;;;;5032025;28;20435;-58
2023/04/30 00:16:37;;;;;;;9.97;8.03;;;;;;;;;;5031831;28;20460;-58
2023/04/30 00:19:03;;;;;;;8.87;8.07;;;;;;;;;;5032108;28;20459;-58
2023/04/30 00:21:29;;;;;;;8.80;8.10;;;;;;;;;;5031844;28;20440;-58
2023/04/30 00:23:55;;;;;;;9.03;7.77;;;;;;;;;;5031788;28;20423;-59
2023/04/30 00:26:21;;;;;;;9.00;8.10;;;;;;;;;;5031390;28;20415;-58
2023/04/30 00:28:49;;;;;;;9.30;8.50;;;;;;;;;;5031826;28;20423;-57
2023/04/30 00:31:15;;;;;;;9.90;8.90;;;;;;;;;;5031834;28;20483;-59
2023/04/30 00:33:41;;;;;;;9.23;8.43;;;;;;;;;;5031784;28;20888;-58
2023/04/30 00:36:07;;;;;;;13.33;9.43;;;;;;;;;;5032102;28;20414;-58
2023/04/30 00:38:33;;;;;;;9.90;8.90;;;;;;;;;;5030437;28;20437;-58
2023/04/30 00:40:59;;;;;;;9.83;8.90;;;;;;;;;;5031556;28;20423;-58
2023/04/30 00:43:26;;;;;;;8.67;8.07;;;;;;;;;;5031893;28;20478;-58
2023/04/30 00:45:52;;;;;;;9.00;8.20;;;;;;;;;;5031741;28;20991;-57
2023/04/30 00:48:18;;;;;;;9.73;9.00;;;;;;;;;;5031874;28;20506;-58
2023/04/30 00:50:47;;;;;;;9.50;8.60;;;;;;;;;;5031683;28;20420;-58
2023/04/30 00:53:15;;;;;;;10.33;9.43;;;;;;;;;;5031900;28;20408;-58
2023/04/30 00:55:41;;;;;;;10.40;9.40;;;;;;;;;;5031515;28;20986;-58
2023/04/30 00:58:07;;;;;;;9.97;9.03;;;;;;;;;;5031580;28;20478;-58
2023/04/30 01:00:36;;;;;;;9.70;8.80;;;;;;;;;;5031668;28;20423;-58
2023/04/30 01:03:02;;;;;;;10.80;9.90;;;;;;;;;;5031782;28;20510;-58
2023/04/30 01:05:28;;;;;;;10.80;9.77;;;;;;;;;;5031830;28;20440;-58
2023/04/30 01:07:55;;;;;;;11.53;10.53;;;;;;;;;;5031665;28;20404;-58
2023/04/30 01:10:23;;;;;;;12.73;11.50;;;;;;;;;;5031657;28;20431;-57
2023/04/30 01:12:55;;;;;;;12.43;11.13;;;;;;;;;;5032040;28;20463;-58
2023/04/30 01:15:40;;;;;;;13.90;10.67;;;;;;;;;;5031772;28;20775;-58
2023/04/30 01:18:13;;;;;;;12.40;11.10;;;;;;;;;;5033575;28;20408;-57
2023/04/30 01:20:43;;;;;;;12.50;11.20;;;;;;;;;;5035217;28;20426;-58
2023/04/30 01:23:22;;;;;;;13.43;12.03;;;;;;;;;;5035420;28;20431;-57
2023/04/30 01:25:48;;;;;;;14.27;12.23;;;;;;;;;;5035133;28;20407;-57
2023/04/30 01:28:15;;;;;;;11.97;10.63;;;;;;;;;;5034965;28;20478;-56
2023/04/30 01:30:44;;;;;;;12.70;11.50;;;;;;;;;;5035059;28;20416;-57
2023/04/30 01:33:10;;;;;;;14.47;12.10;;;;;;;;;;5035132;28;20432;-57
2023/04/30 01:35:39;;;;;;;14.40;12.97;;;;;;;;;;5035382;28;20420;-58
2023/04/30 01:38:25;;;;;;;14.40;12.57;;;;;;;;;;5034877;28;20424;-57
2023/04/30 01:40:58;;;;;;;14.70;12.20;;;;;;;;;;5034626;28;20427;-58
2023/04/30 01:43:31;;;;;;;15.47;13.80;;;;;;;;;;5034827;28;20420;-58
2023/04/30 01:45:57;;;;;;;14.60;12.90;;;;;;;;;;5034904;28;20454;-57
2023/04/30 01:48:31;;;;;;;15.83;13.93;;;;;;;;;;5034761;28;20487;-58
2023/04/30 01:51:16;;;;;;;16.23;12.27;;;;;;;;;;5034613;28;20482;-58
2023/04/30 01:53:43;;;;;;;15.53;13.60;;;;;;;;;;5034592;28;20477;-58
2023/04/30 01:56:18;;;;;;;15.57;13.77;;;;;;;;;;5034382;28;20490;-58
2023/04/30 01:58:45;;;;;;;17.00;13.10;;;;;;;;;;5034036;28;20918;-58
2023/04/30 02:01:26;;;;;;;18.43;14.23;;;;;;;;;;5034260;28;20439;-58
2023/04/30 02:03:52;;;;;;;18.33;13.27;;;;;;;;;;5034383;28;20416;-58
2023/04/30 02:06:19;;;;;;;15.60;14.00;;;;;;;;;;5034353;28;20903;-58
2023/04/30 02:08:47;;;;;;;14.07;12.60;;;;;;;;;;5034646;28;20802;-58
2023/04/30 02:11:13;;;;;;;17.73;14.83;;;;;;;;;;5033993;28;20470;-58
2023/04/30 02:13:41;;;;;;;20.37;14.60;;;;;;;;;;5034340;28;20435;-58
2023/04/30 02:16:07;;;;;;;19.00;14.40;;;;;;;;;;5034116;28;20419;-58
2023/04/30 02:18:33;;;;;;;17.20;14.10;;;;;;;;;;5034240;28;20432;-58
2023/04/30 02:20:59;;;;;;;17.83;13.87;;;;;;;;;;5034038;28;20416;-58
2023/04/30 02:23:25;;;;;;;16.37;14.27;;;;;;;;;;5034165;28;20478;-58
2023/04/30 02:25:51;;;;;;;17.53;15.50;;;;;;;;;;5034253;28;20833;-58
2023/04/30 02:28:17;;;;;;;20.77;15.80;;;;;;;;;;5033908;28;20439;-58
2023/04/30 02:30:43;;;;;;;18.83;15.17;;;;;;;;;;5033265;28;20457;-60
2023/04/30 02:33:11;;;;;;;20.10;16.50;;;;;;;;;;5033916;28;20403;-57
2023/04/30 02:35:37;;;;;;;22.53;15.93;;;;;;;;;;5033813;28;20442;-58
2023/04/30 02:38:03;;;;;;;29.10;17.27;;;;;;;;;;5033553;28;20452;-57
2023/04/30 02:40:29;;;;;;;19.17;16.07;;;;;;;;;;5033767;28;20478;-58
2023/04/30 02:42:55;;;;;;;21.40;16.30;;;;;;;;;;5032305;28;20430;-58
2023/04/30 02:45:21;;;;;;;24.80;17.27;;;;;;;;;;5033496;28;20435;-58
2023/04/30 02:47:47;;;;;;;26.93;18.10;;;;;;;;;;5033699;28;20444;-57
2023/04/30 02:50:14;;;;;;;21.87;17.47;;;;;;;;;;5034015;28;20427;-57
2023/04/30 02:52:39;;;;;;;21.97;17.97;;;;;;;;;;5033313;28;20501;-58
2023/04/30 02:55:06;;;;;;;23.30;18.87;;;;;;;;;;5033244;28;20427;-58
2023/04/30 02:57:32;;;;;;;23.07;18.60;;;;;;;;;;5033545;28;20884;-58
2023/04/30 02:59:58;;;;;;;24.67;18.33;;;;;;;;;;5033410;28;20952;-58
2023/04/30 03:02:26;;;;;;;24.83;19.03;;;;;;;;;;5033210;28;20803;-57
2023/04/30 03:04:52;;;;;;;22.37;17.80;;;;;;;;;;5033177;28;20462;-58
2023/04/30 03:07:18;;;;;;;30.33;19.17;;;;;;;;;;5033349;28;20493;-58
2023/04/30 03:09:46;;;;;;;24.27;19.50;;;;;;;;;;5033195;28;20427;-58
2023/04/30 03:12:13;;;;;;;25.30;19.50;;;;;;;;;;5032980;28;20459;-58
2023/04/30 03:14:39;;;;;;;29.43;19.13;;;;;;;;;;5032992;28;20431;-58
2023/04/30 03:17:05;;;;;;;24.30;18.20;;;;;;;;;;5033146;28;20503;-58
2023/04/30 03:19:32;;;;;;;26.90;19.53;;;;;;;;;;5033125;28;20468;-57
2023/04/30 03:21:58;;;;;;;27.37;19.70;;;;;;;;;;5032938;28;20779;-57
2023/04/30 03:24:24;;;;;;;25.10;19.70;;;;;;;;;;5032889;28;20416;-57
2023/04/30 03:26:50;;;;;;;26.27;19.57;;;;;;;;;;5033013;28;20478;-58
2023/04/30 03:29:16;;;;;;;24.70;19.73;;;;;;;;;;5033016;28;20418;-58
2023/04/30 03:31:42;;;;;;;26.60;19.30;;;;;;;;;;5032497;28;20925;-58
2023/04/30 03:34:13;;;;;;;25.57;19.20;;;;;;;;;;5032673;28;20495;-58
2023/04/30 03:36:39;;;;;;;25.67;20.20;;;;;;;;;;5032715;28;20471;-57
2023/04/30 03:39:08;;;;;;;26.20;18.90;;;;;;;;;;5032881;28;20392;-58
2023/04/30 03:41:34;;;;;;;29.23;20.80;;;;;;;;;;5031758;28;20474;-58
2023/04/30 03:44:00;;;;;;;24.90;19.57;;;;;;;;;;5032759;28;20435;-57
2023/04/30 03:46:26;;;;;;;29.33;20.03;;;;;;;;;;5032451;28;20903;-58
2023/04/30 03:48:55;;;;;;;29.47;21.07;;;;;;;;;;5032439;28;20427;-58
2023/04/30 03:51:21;;;;;;;28.90;20.90;;;;;;;;;;5032424;28;20459;-58
2023/04/30 03:53:47;;;;;;;29.20;19.70;;;;;;;;;;5031347;28;20907;-58
2023/04/30 03:56:13;;;;;;;26.83;20.83;;;;;;;;;;5032339;28;20492;-58
2023/04/30 03:58:39;;;;;;;29.90;19.57;;;;;;;;;;5031792;28;20492;-57
2023/04/30 04:01:05;;;;;;;27.50;19.27;;;;;;;;;;5032640;28;20431;-58
2023/04/30 04:03:33;;;;;;;27.37;19.50;;;;;;;;;;5032060;28;20443;-58
2023/04/30 04:05:59;;;;;;;27.83;20.43;;;;;;;;;;5031110;28;20498;-58
2023/04/30 04:08:25;;;;;;;28.83;20.40;;;;;;;;;;5032162;28;20482;-58
2023/04/30 04:10:51;;;;;;;26.73;20.23;;;;;;;;;;5032212;28;20903;-57
2023/04/30 04:13:17;;;;;;;26.97;20.00;;;;;;;;;;5032289;28;20443;-57
2023/04/30 04:15:43;;;;;;;26.87;19.67;;;;;;;;;;5032252;28;20787;-58
2023/04/30 04:18:09;;;;;;;24.93;19.30;;;;;;;;;;5032316;28;20473;-57
2023/04/30 04:20:35;;;;;;;25.20;19.43;;;;;;;;;;5032084;28;20445;-58
2023/04/30 04:23:01;;;;;;;22.93;18.70;;;;;;;;;;5032023;28;20412;-58
2023/04/30 04:25:27;;;;;;;24.10;19.83;;;;;;;;;;5032040;28;20871;-57
2023/04/30 04:27:53;;;;;;;25.23;18.43;;;;;;;;;;5032278;28;20938;-58
2023/04/30 04:30:19;;;;;;;27.47;19.80;;;;;;;;;;5031964;28;20411;-58
2023/04/30 04:32:47;;;;;;;23.40;17.97;;;;;;;;;;5031949;28;21025;-58
2023/04/30 04:35:19;;;;;;;26.13;19.17;;;;;;;;;;5032016;28;20787;-58
2023/04/30 04:37:48;;;;;;;19.57;17.00;;;;;;;;;;5030443;28;20446;-58
2023/04/30 04:40:14;;;;;;;21.90;16.50;;;;;;;;;;5031837;28;20407;-57
2023/04/30 04:42:40;;;;;;;20.63;16.20;;;;;;;;;;5031939;28;20435;-58
2023/04/30 04:45:07;;;;;;;22.87;15.97;;;;;;;;;;5031988;28;20427;-58
2023/04/30 04:47:33;;;;;;;21.10;17.33;;;;;;;;;;5031841;28;20428;-58
2023/04/30 04:50:03;;;;;;;20.60;16.27;;;;;;;;;;5031805;28;20444;-58
2023/04/30 04:52:29;;;;;;;21.10;17.37;;;;;;;;;;5032606;28;20558;-58
2023/04/30 04:54:58;;;;;;;18.63;15.73;;;;;;;;;;5035788;28;20886;-57
2023/04/30 04:57:24;;;;;;;21.40;15.50;;;;;;;;;;5035821;28;20461;-58
2023/04/30 04:59:50;;;;;;;17.00;14.60;;;;;;;;;;5035645;28;20486;-58
2023/04/30 05:02:16;;;;;;;15.80;14.10;;;;;;;;;;5035630;28;20418;-59
2023/04/30 05:04:42;;;;;;;18.10;14.60;;;;;;;;;;5035511;28;20435;-57
2023/04/30 05:07:08;;;;;;;15.27;13.50;;;;;;;;;;5035536;28;20400;-58
2023/04/30 05:09:34;;;;;;;15.57;13.37;;;;;;;;;;5035414;28;20986;-58
2023/04/30 05:12:01;;;;;;;16.20;13.40;;;;;;;;;;5035286;28;20463;-58
2023/04/30 05:14:29;;;;;;;15.23;13.50;;;;;;;;;;5035869;28;20808;-58
2023/04/30 05:16:55;;;;;;;16.60;13.20;;;;;;;;;;5035093;28;20489;-58
2023/04/30 05:19:21;;;;;;;14.43;12.93;;;;;;;;;;5035317;28;20403;-57
2023/04/30 05:21:47;;;;;;;15.33;13.17;;;;;;;;;;5033846;28;20484;-58
2023/04/30 05:24:13;;;;;;;14.27;12.77;;;;;;;;;;5035235;28;20950;-58
2023/04/30 05:26:41;;;;;;;19.20;13.37;;;;;;;;;;5034928;28;20469;-58
2023/04/30 05:29:07;;;;;;;14.40;12.07;;;;;;;;;;5035255;28;20408;-58
2023/04/30 05:31:33;;;;;;;14.67;11.80;;;;;;;;;;5033806;28;20997;-58
2023/04/30 05:33:59;;;;;;;12.43;11.17;;;;;;;;;;5035401;28;20438;-58
2023/04/30 05:36:25;;;;;;;12.07;10.97;;;;;;;;;;5034914;28;20415;-58
2023/04/30 05:38:54;;;;;;;12.13;10.93;;;;;;;;;;5034780;28;20433;-57
2023/04/30 05:41:20;;;;;;;12.30;11.10;;;;;;;;;;5035015;28;20403;-58
2023/04/30 05:43:46;;;;;;;11.93;10.73;;;;;;;;;;5034604;28;20444;-56
2023/04/30 05:46:13;;;;;;;11.37;10.27;;;;;;;;;;5034921;28;20784;-58
2023/04/30 05:48:39;;;;;;;11.67;10.63;;;;;;;;;;5034640;28;20842;-58
2023/04/30 05:51:05;;;;;;;21.00;17.20;;;;;;;;;;5034508;28;20491;-58
2023/04/30 05:53:31;;;;;;;11.20;10.20;;;;;;;;;;5034710;28;20420;-58
2023/04/30 05:55:57;;;;;;;12.10;10.90;;;;;;;;;;5033761;28;20512;-60
2023/04/30 05:58:24;;;;;;;11.57;10.57;;;;;;;;;;5034724;28;20555;-57
2023/04/30 06:00:51;;;;;;;10.40;9.60;;;;;;;;;;5034270;28;21001;-57
2023/04/30 06:03:20;;;;;;;14.10;10.00;;;;;;;;;;5034492;28;20408;-58
2023/04/30 06:05:46;;;;;;;15.47;9.33;;;;;;;;;;5033318;28;20933;-58
2023/04/30 06:08:12;;;;;;;10.40;9.40;;;;;;;;;;5034446;28;20442;-58
2023/04/30 06:10:39;;;;;;;10.17;9.17;;;;;;;;;;5034417;28;20445;-58
2023/04/30 06:13:08;;;;;;;10.80;9.90;;;;;;;;;;5034299;28;20468;-58
2023/04/30 06:15:34;;;;;;;10.77;9.77;;;;;;;;;;5034134;28;20420;-58
2023/04/30 06:18:02;;;;;;;9.10;8.40;;;;;;;;;;5034109;28;20518;-57
2023/04/30 06:20:28;;;;;;;10.27;9.30;;;;;;;;;;5032926;28;20416;-58
2023/04/30 06:22:54;;;;;;;11.17;10.07;;;;;;;;;;5034256;28;20452;-57
2023/04/30 06:25:21;;;;;;;10.50;9.50;;;;;;;;;;5034280;28;20425;-57
2023/04/30 06:27:47;;;;;;;8.73;8.00;;;;;;;;;;5034210;28;20404;-57
2023/04/30 06:30:13;;;;;;;9.30;8.50;;;;;;;;;;5033895;28;20531;-58
2023/04/30 06:32:40;;;;;;;11.43;9.10;;;;;;;;;;5033591;28;20471;-58
2023/04/30 06:35:06;;;;;;;8.43;7.67;;;;;;;;;;5033821;28;20433;-58
2023/04/30 06:37:36;;;;;;;8.40;7.73;;;;;;;;;;5033787;28;20776;-58
2023/04/30 06:40:05;;;;;;;8.97;8.27;;;;;;;;;;5033727;28;20428;-58
2023/04/30 06:42:34;;;;;;;9.00;8.30;;;;;;;;;;5033659;28;20507;-58
2023/04/30 06:45:01;;;;;;;7.97;7.20;;;;;;;;;;5033573;28;20518;-58
2023/04/30 06:47:27;;;;;;;8.30;7.77;;;;;;;;;;5033271;28;20425;-58
2023/04/30 06:49:55;;;;;;;7.17;6.60;;;;;;;;;;5033692;28;20424;-57
2023/04/30 06:52:24;;;;;;;8.20;7.50;;;;;;;;;;5033443;28;20492;-58
2023/04/30 06:54:50;;;;;;;7.40;6.87;;;;;;;;;;5033220;28;20883;-57
2023/04/30 06:57:16;;;;;;;17.60;15.93;;;;;;;;;;5033359;28;20434;-57
2023/04/30 06:59:44;;;;;;;7.20;6.60;;;;;;;;;;5033382;28;20420;-58
2023/04/30 07:02:12;;;;;;;8.00;7.50;;;;;;;;;;5031928;28;20453;-57
2023/04/30 07:04:38;;;;;;;6.87;6.43;;;;;;;;;;5033194;28;20446;-57
2023/04/30 07:07:04;;;;;;;6.73;6.33;;;;;;;;;;5033253;28;20860;-58
2023/04/30 07:09:30;;;;;;;6.33;6.03;;;;;;;;;;5033235;28;20416;-57
2023/04/30 07:11:57;;;;;;;6.50;5.80;;;;;;;;;;5033149;28;20487;-58
2023/04/30 07:14:23;;;;;;;5.57;5.37;;;;;;;;;;5032853;28;20927;-58
2023/04/30 07:16:49;;;;;;;6.33;5.83;;;;;;;;;;5032947;28;20473;-57
2023/04/30 07:19:15;;;;;;;6.17;5.67;;;;;;;;;;5032973;28;20517;-58
2023/04/30 07:21:42;;;;;;;5.70;5.40;;;;;;;;;;5032694;28;20410;-58
2023/04/30 07:24:10;;;;;;;7.30;6.80;;;;;;;;;;5033136;28;20520;-57
2023/04/30 07:26:36;;;;;;;7.63;5.80;;;;;;;;;;5032964;28;20433;-58
2023/04/30 07:29:03;;;;;;;5.77;5.23;;;;;;;;;;5032873;28;20910;-58
2023/04/30 07:31:32;;;;;;;5.17;4.97;;;;;;;;;;5032883;28;20462;-58
2023/04/30 07:33:58;;;;;;;5.60;5.30;;;;;;;;;;5032845;28;20415;-57
2023/04/30 07:36:26;;;;;;;4.70;4.50;;;;;;;;;;5032710;28;20433;-58
2023/04/30 07:38:54;;;;;;;4.50;4.40;;;;;;;;;;5032679;28;20771;-57
2023/04/30 07:41:20;;;;;;;10.73;4.27;;;;;;;;;;5032645;28;20481;-57
2023/04/30 07:43:46;;;;;;;5.30;5.10;;;;;;;;;;5032732;28;20432;-58
2023/04/30 07:46:12;;;;;;;3.50;3.40;;;;;;;;;;5032542;28;20446;-58
2023/04/30 07:48:38;;;;;;;3.20;3.10;;;;;;;;;;5032765;28;20400;-58
2023/04/30 07:51:04;;;;;;;2.97;2.87;;;;;;;;;;5032389;28;20887;-57
2023/04/30 07:53:30;;;;;;;4.40;4.10;;;;;;;;;;5032685;28;20420;-58
2023/04/30 07:55:59;;;;;;;2.90;2.80;;;;;;;;;;5032508;28;20435;-57
2023/04/30 07:58:25;;;;;;;3.17;3.00;;;;;;;;;;5032476;28;20436;-57
2023/04/30 08:00:51;;;;;;;3.03;2.93;;;;;;;;;;5032798;28;20408;-57
2023/04/30 08:03:18;;;;;;;3.33;3.23;;;;;;;;;;5032647;28;20449;-57
2023/04/30 08:05:46;;;;;;;2.70;2.60;;;;;;;;;;5032804;28;20762;-56
2023/04/30 08:08:12;;;;;;;2.30;2.30;;;;;;;;;;5032700;28;20446;-57
2023/04/30 08:10:40;;;;;;;2.67;2.57;;;;;;;;;;5032493;28;20424;-57
2023/04/30 08:13:08;;;;;;;2.30;2.30;;;;;;;;;;5032656;28;20984;-57
2023/04/30 08:15:35;;;;;;;2.27;2.27;;;;;;;;;;5031262;28;20427;-57
2023/04/30 08:18:04;;;;;;;2.30;2.30;;;;;;;;;;5032727;28;20908;-57
2023/04/30 08:20:31;;;;;;;3.10;3.00;;;;;;;;;;5032564;28;20402;-58
2023/04/30 08:22:57;;;;;;;2.87;2.10;;;;;;;;;;5032496;28;20909;-58
2023/04/30 08:25:23;;;;;;;2.30;2.30;;;;;;;;;;5032160;28;20418;-58
2023/04/30 08:27:49;;;;;;;2.17;2.10;;;;;;;;;;5031696;28;20968;-57
2023/04/30 08:30:17;;;;;;;1.83;1.73;;;;;;;;;;5032526;28;20500;-58
2023/04/30 08:32:44;;;;;;;1.87;1.87;;;;;;;;;;5032604;28;20473;-57
2023/04/30 08:35:10;;;;;;;2.40;2.30;;;;;;;;;;5032509;28;20408;-58
2023/04/30 08:37:36;;;;;;;2.00;2.00;;;;;;;;;;5032262;28;20425;-57
2023/04/30 08:40:03;;;;;;;2.17;2.17;;;;;;;;;;5032544;28;20411;-58
2023/04/30 08:42:30;;;;;;;4.63;2.20;;;;;;;;;;5032553;28;20835;-58
2023/04/30 08:44:58;;;;;;;2.20;2.10;;;;;;;;;;5032206;28;20491;-58
2023/04/30 08:47:27;;;;;;;2.07;2.07;;;;;;;;;;5032284;28;20830;-57
2023/04/30 08:49:53;;;;;;;2.43;1.90;;;;;;;;;;5032252;28;20423;-57
2023/04/30 08:52:19;;;;;;;2.00;2.00;;;;;;;;;;5032339;28;20467;-57
2023/04/30 08:54:45;;;;;;;1.83;1.80;;;;;;;;;;5032104;28;20883;-58
2023/04/30 08:57:11;;;;;;;2.00;2.00;;;;;;;;;;5032161;28;20399;-58
2023/04/30 08:59:37;;;;;;;1.97;1.97;;;;;;;;;;5031957;28;20428;-57
2023/04/30 09:02:04;;;;;;;2.20;2.00;;;;;;;;;;5032134;28;20415;-57
2023/04/30 09:04:30;;;;;;;3.70;1.77;;;;;;;;;;5031904;28;20918;-58
2023/04/30 09:06:58;;;;;;;1.53;1.53;;;;;;;;;;5032137;28;20415;-58
2023/04/30 09:09:28;;;;;;;1.87;1.87;;;;;;;;;;5031809;28;20447;-57
2023/04/30 09:12:14;;;;;;;2.00;2.00;;;;;;;;;;5032026;28;20560;-57
2023/04/30 09:14:40;;;;;;;1.90;1.90;;;;;;;;;;5031936;28;20500;-57
2023/04/30 09:17:07;;;;;;;1.83;1.83;;;;;;;;;;5031847;28;20421;-58
2023/04/30 09:19:33;;;;;;;1.53;1.53;;;;;;;;;;5030903;28;20423;-57
2023/04/30 09:22:17;;;;;;;3.60;1.80;;;;;;;;;;5031830;28;20779;-57
2023/04/30 09:24:48;;;;;;;2.53;2.00;;;;;;;;;;5031678;28;20815;-57
2023/04/30 09:27:23;;;;;;;2.00;2.00;;;;;;;;;;5031680;28;20725;-57
2023/04/30 09:29:49;;;;;;;2.10;2.00;;;;;;;;;;5031654;28;20478;-57
2023/04/30 09:32:15;;;;;;;1.70;1.60;;;;;;;;;;5031775;28;20460;-58
2023/04/30 09:34:42;;;;;;;2.20;2.20;;;;;;;;;;5031783;28;20417;-58
2023/04/30 09:37:11;;;;;;;1.70;1.70;;;;;;;;;;5031817;28;20412;-58
2023/04/30 09:39:50;;;;;;;2.33;2.33;;;;;;;;;;5032603;28;20443;-58
2023/04/30 09:42:17;;;;;;;1.70;1.70;;;;;;;;;;5035279;28;20503;-58
2023/04/30 09:44:43;;;;;;;2.27;2.20;;;;;;;;;;5035076;28;20501;-58
2023/04/30 09:47:16;;;;;;;3.70;2.20;;;;;;;;;;5035321;28;20423;-58
2023/04/30 09:49:43;;;;;;;2.03;1.83;;;;;;;;;;5035505;28;20443;-57
2023/04/30 09:52:10;;;;;;;2.63;1.83;;;;;;;;;;5035144;28;20490;-58
2023/04/30 09:54:36;;;;;;;4.60;4.30;;;;;;;;;;5035210;28;20471;-58
2023/04/30 09:57:02;;;;;;;2.80;2.70;;;;;;;;;;5034914;28;20433;-58
2023/04/30 09:59:30;;;;;;;2.13;2.13;;;;;;;;;;5035013;28;20436;-58
2023/04/30 10:01:58;;;;;;;1.70;1.70;;;;;;;;;;5034766;28;20443;-58
2023/04/30 10:04:24;;;;;;;2.10;2.10;;;;;;;;;;5034911;28;20525;-58
2023/04/30 10:06:54;;;;;;;1.83;1.83;;;;;;;;;;5034889;28;20416;-58
2023/04/30 10:09:24;;;;;;;2.23;2.23;;;;;;;;;;5034856;28;20439;-58
2023/04/30 10:11:50;;;;;;;2.10;1.87;;;;;;;;;;5034645;28;20485;-58
2023/04/30 10:14:17;;;;;;;2.20;2.20;;;;;;;;;;5034696;28;20434;-58
2023/04/30 10:16:48;;;;;;;3.07;1.63;;;;;;;;;;5034649;28;20807;-58
2023/04/30 10:19:20;;;;;;;1.63;1.53;;;;;;;;;;5034095;28;20478;-57
2023/04/30 10:21:47;;;;;;;2.10;2.10;;;;;;;;;;5034324;28;20431;-58
2023/04/30 10:24:14;;;;;;;2.77;2.00;;;;;;;;;;5034017;28;20436;-58
2023/04/30 10:26:41;;;;;;;4.97;4.40;;;;;;;;;;5033864;28;20425;-59
2023/04/30 10:29:07;;;;;;;5.00;4.60;;;;;;;;;;5034189;28;20479;-59
2023/04/30 10:31:36;;;;;;;4.80;3.63;;;;;;;;;;5034195;28;20454;-59
2023/04/30 10:34:11;;;;;;;2.30;2.30;;;;;;;;;;5034374;28;20844;-59
2023/04/30 10:36:47;;;;;;;2.80;2.70;;;;;;;;;;5033824;28;20912;-59
2023/04/30 10:39:16;;;;;;;2.40;2.30;;;;;;;;;;5034117;28;20804;-59
2023/04/30 10:41:45;;;;;;;2.10;2.00;;;;;;;;;;5034174;28;20822;-59
2023/04/30 10:44:12;;;;;;;2.23;2.07;;;;;;;;;;5034077;28;20834;-59
2023/04/30 10:46:38;;;;;;;1.80;1.80;;;;;;;;;;5034329;28;20420;-59
2023/04/30 10:49:04;;;;;;;2.07;1.90;;;;;;;;;;5032806;28;20510;-56
2023/04/30 10:51:55;;;;;;;2.00;2.00;;;;;;;;;;5033417;28;20833;-57
2023/04/30 10:54:31;;;;;;;1.80;1.80;;;;;;;;;;5033831;28;20441;-57
2023/04/30 10:57:28;;;;;;;2.23;1.80;;;;;;;;;;5033800;28;20441;-58
2023/04/30 11:00:15;;;;;;;2.10;2.10;;;;;;;;;;5021838;28;20482;-56
2023/04/30 11:02:42;;;;;;;2.20;2.10;;;;;;;;;;5023493;28;20430;-56
2023/04/30 11:05:12;;;;;;;1.73;1.73;;;;;;;;;;5033677;28;20767;-56
2023/04/30 11:07:51;;;;;;;1.80;1.80;;;;;;;;;;5033621;28;20441;-56
2023/04/30 11:10:25;;;;;;;2.10;2.10;;;;;;;;;;5033599;28;20441;-58
2023/04/30 11:12:54;;;;;;;2.10;1.60;;;;;;;;;;5033703;28;20466;-58
2023/04/30 11:15:23;;;;;;;1.70;1.70;;;;;;;;;;5033609;28;20443;-57
2023/04/30 11:17:50;;;;;;;1.70;1.60;;;;;;;;;;5033266;28;20891;-58
2023/04/30 11:20:19;;;;;;;1.60;1.60;;;;;;;;;;5033492;28;20443;-57
2023/04/30 11:22:45;;;;;;;1.77;1.77;;;;;;;;;;5033511;28;20418;-57
2023/04/30 11:25:18;;;;;;;1.80;1.60;;;;;;;;;;5033165;28;20518;-58
2023/04/30 11:27:47;;;;;;;2.40;2.00;;;;;;;;;;5033169;28;20424;-58
2023/04/30 11:30:16;;;;;;;1.73;1.63;;;;;;;;;;5033169;28;20467;-58
2023/04/30 11:32:46;;;;;;;3.33;1.60;;;;;;;;;;5031657;28;20473;-58
2023/04/30 11:35:14;;;;;;;1.87;1.53;;;;;;;;;;5033257;28;20518;-57
2023/04/30 11:37:43;;;;;;;1.67;1.67;;;;;;;;;;5033238;28;20418;-58
2023/04/30 11:40:13;;;;;;;1.90;1.90;;;;;;;;;;5032966;28;20491;-57
2023/04/30 11:42:45;;;;;;;1.83;1.83;;;;;;;;;;5033088;28;20415;-58
2023/04/30 11:45:19;;;;;;;1.83;1.83;;;;;;;;;;5032953;28;21010;-57
2023/04/30 11:47:50;;;;;;;2.07;1.97;;;;;;;;;;5032769;28;20851;-57
2023/04/30 11:50:17;;;;;;;1.60;1.60;;;;;;;;;;5032729;28;20456;-57
2023/04/30 11:52:51;;;;;;;1.97;1.97;;;;;;;;;;5032827;28;20476;-56
2023/04/30 11:55:21;;;;;;;2.03;1.80;;;;;;;;;;5031645;28;20904;-57
2023/04/30 11:57:51;;;;;;;1.93;1.93;;;;;;;;;;5032685;28;20889;-57
2023/04/30 12:00:20;;;;;;;1.80;1.70;;;;;;;;;;5032780;28;20417;-57
2023/04/30 12:02:47;;;;;;;2.10;2.10;;;;;;;;;;5032026;28;20413;-57
2023/04/30 12:05:14;;;;;;;2.10;2.10;;;;;;;;;;5032675;28;20949;-57
2023/04/30 12:07:45;;;;;;;1.90;1.90;;;;;;;;;;5032664;28;20498;-57
2023/04/30 12:10:11;;;;;;;1.90;1.90;;;;;;;;;;5032835;28;20437;-57
2023/04/30 12:12:37;;;;;;;1.73;1.73;;;;;;;;;;5032654;28;20467;-58
2023/04/30 12:15:13;;;;;;;2.10;2.10;;;;;;;;;;5032624;28;20419;-57
2023/04/30 12:17:41;;;;;;;1.90;1.90;;;;;;;;;;5032990;28;20919;-58
2023/04/30 12:20:08;;;;;;;1.90;1.90;;;;;;;;;;5032290;28;20416;-58
2023/04/30 12:22:36;;;;;;;1.90;1.90;;;;;;;;;;5032683;28;20407;-58
2023/04/30 12:25:05;;;;;;;1.90;1.80;;;;;;;;;;5032509;28;20421;-59
2023/04/30 12:27:34;;;;;;;2.27;2.07;;;;;;;;;;5032439;28;20411;-58
2023/04/30 12:30:02;;;;;;;2.13;2.13;;;;;;;;;;5032514;28;20429;-58
2023/04/30 12:32:28;;;;;;;167.17;108.73;;;;;;;;;;5032210;28;20560;-58
2023/04/30 12:34:58;;;;;;;43.03;28.10;;;;;;;;;;5032260;28;20413;-58
2023/04/30 12:37:26;;;;;;;49.33;30.43;;;;;;;;;;5032310;28;20568;-58
2023/04/30 12:39:52;;;;;;;3.00;2.70;;;;;;;;;;5032524;28;20446;-58
2023/04/30 12:42:20;;;;;;;1.90;1.90;;;;;;;;;;5032101;28;20778;-57
2023/04/30 12:44:46;;;;;;;1.80;1.80;;;;;;;;;;5032508;28;20406;-58
2023/04/30 12:47:15;;;;;;;2.53;2.00;;;;;;;;;;5032278;28;20948;-57
2023/04/30 12:49:45;;;;;;;2.53;2.43;;;;;;;;;;5032184;28;20413;-56
2023/04/30 12:52:13;;;;;;;2.27;2.07;;;;;;;;;;5032258;28;20482;-58
2023/04/30 12:54:39;;;;;;;2.30;2.30;;;;;;;;;;5032154;28;20922;-58
2023/04/30 12:57:11;;;;;;;2.13;2.13;;;;;;;;;;5032237;28;20441;-58
2023/04/30 12:59:41;;;;;;;2.33;2.23;;;;;;;;;;5031995;28;20463;-58
2023/04/30 13:02:14;;;;;;;1.80;1.80;;;;;;;;;;5032168;28;20440;-57
2023/04/30 13:04:41;;;;;;;1.90;1.90;;;;;;;;;;5031969;28;20407;-58
2023/04/30 13:07:10;;;;;;;2.33;2.33;;;;;;;;;;5030661;28;20453;-57
2023/04/30 13:09:37;;;;;;;3.23;2.07;;;;;;;;;;5031867;28;20910;-58
2023/04/30 13:12:05;;;;;;;2.23;2.23;;;;;;;;;;5031990;28;20509;-57
2023/04/30 13:14:32;;;;;;;2.20;2.20;;;;;;;;;;5034432;28;20415;-58
2023/04/30 13:16:58;;;;;;;2.00;2.00;;;;;;;;;;5035703;28;20430;-58
2023/04/30 13:19:24;;;;;;;2.60;2.50;;;;;;;;;;5034701;28;20434;-57
2023/04/30 13:21:50;;;;;;;1.87;1.87;;;;;;;;;;5036344;28;20426;-57
2023/04/30 13:24:16;;;;;;;2.67;2.57;;;;;;;;;;5034941;28;20483;-57
2023/04/30 13:26:42;;;;;;;5.50;2.00;;;;;;;;;;5035590;28;20427;-55
2023/04/30 13:29:08;;;;;;;2.70;2.53;;;;;;;;;;5035536;28;20432;-57
2023/04/30 13:31:35;;;;;;;2.97;2.30;;;;;;;;;;5035300;28;20475;-56
2023/04/30 13:34:01;;;;;;;2.17;2.17;;;;;;;;;;5035534;28;20411;-57
2023/04/30 13:36:28;;;;;;;2.30;2.30;;;;;;;;;;5035347;28;20489;-58
2023/04/30 13:38:54;;;;;;;2.37;2.13;;;;;;;;;;5034165;28;20504;-57
2023/04/30 13:41:21;;;;;;;2.60;2.50;;;;;;;;;;5035311;28;20457;-57
2023/04/30 13:43:49;;;;;;;2.07;2.07;;;;;;;;;;5035230;28;20442;-57
2023/04/30 13:46:15;;;;;;;2.63;2.53;;;;;;;;;;5035089;28;20434;-57
2023/04/30 13:48:47;;;;;;;2.27;2.10;;;;;;;;;;5035618;28;20795;-57
2023/04/30 13:51:13;;;;;;;2.03;2.00;;;;;;;;;;5034961;28;20781;-57
2023/04/30 13:53:39;;;;;;;2.33;2.33;;;;;;;;;;5035042;28;20476;-57
2023/04/30 13:56:05;;;;;;;2.03;2.03;;;;;;;;;;5033390;28;20442;-57
2023/04/30 13:58:31;;;;;;;2.17;2.17;;;;;;;;;;5034917;28;20500;-58
2023/04/30 14:00:58;;;;;;;2.17;2.17;;;;;;;;;;5035010;28;20926;-58
2023/04/30 14:03:24;;;;;;;2.17;2.17;;;;;;;;;;5034908;28;20429;-57
2023/04/30 14:05:50;;;;;;;2.23;2.13;;;;;;;;;;5034886;28;20506;-58
2023/04/30 14:08:16;;;;;;;2.00;1.90;;;;;;;;;;5034885;28;20501;-58
2023/04/30 14:10:42;;;;;;;2.57;2.37;;;;;;;;;;5035097;28;20525;-58
2023/04/30 14:13:08;;;;;;;1.97;1.90;;;;;;;;;;5034859;28;20461;-58
2023/04/30 14:15:37;;;;;;;1.80;1.73;;;;;;;;;;5034660;28;20410;-57
2023/04/30 14:18:03;;;;;;;2.10;1.90;;;;;;;;;;5034503;28;20419;-57
2023/04/30 14:20:29;;;;;;;2.07;2.00;;;;;;;;;;5034566;28;20428;-57
2023/04/30 14:22:55;;;;;;;2.40;2.30;;;;;;;;;;5034394;28;20520;-57
2023/04/30 14:25:21;;;;;;;26.73;18.80;;;;;;;;;;5033847;28;20857;-58
2023/04/30 14:27:47;;;;;;;12.60;11.30;;;;;;;;;;5034416;28;20438;-57
2023/04/30 14:30:16;;;;;;;32.50;21.20;;;;;;;;;;5032457;28;20426;-58
2023/04/30 14:32:42;;;;;;;3.77;3.47;;;;;;;;;;5033229;28;20514;-57
2023/04/30 14:35:08;;;;;;;3.80;2.17;;;;;;;;;;5034114;28;20438;-58
2023/04/30 14:37:34;;;;;;;2.30;2.30;;;;;;;;;;5034311;28;20677;-58